createdAt,value
2022-09-06T00:02:52.612Z,3.4
2022-09-06T00:07:52.573Z,3.1
2022-09-06T00:12:52.583Z,2.9
2022-09-06T00:17:52.575Z,2.9
2022-09-06T00:22:52.576Z,1.8
2022-09-06T00:27:52.580Z,1.9
2022-09-06T00:32:52.566Z,1.5
2022-09-06T00:37:52.585Z,1
2022-09-06T00:42:52.567Z,1.2
2022-09-06T00:47:52.577Z,1.2
2022-09-06T00:52:52.594Z,1.2
2022-09-06T00:57:52.592Z,1
2022-09-06T01:02:52.609Z,1.2
2022-09-06T01:07:52.593Z,1.2
2022-09-06T01:12:52.573Z,1.5
2022-09-06T01:17:52.611Z,1.5
2022-09-06T01:22:52.589Z,1.3
2022-09-06T01:27:52.594Z,1.2
2022-09-06T01:32:52.558Z,1.2
2022-09-06T01:37:52.610Z,1.3
2022-09-06T01:42:52.606Z,1.2
2022-09-06T01:47:52.606Z,1.2
2022-09-06T01:52:52.598Z,1.3
2022-09-06T01:57:52.617Z,1.4
2022-09-06T02:02:52.698Z,1.3
2022-09-06T02:07:52.628Z,1.5
2022-09-06T02:12:52.600Z,1.5
2022-09-06T02:17:52.616Z,1.5
2022-09-06T02:22:52.623Z,1.3
2022-09-06T02:27:52.621Z,1.4
2022-09-06T02:32:52.613Z,1.3
2022-09-06T02:37:52.624Z,1.3
2022-09-06T02:42:52.611Z,1.5
2022-09-06T02:47:52.599Z,1.5
2022-09-06T02:52:52.641Z,1.2
2022-09-06T02:57:52.630Z,1.8
2022-09-06T03:02:52.632Z,1.8
2022-09-06T03:07:52.636Z,2.3
2022-09-06T03:12:52.599Z,2.1
2022-09-06T03:22:52.679Z,2.5
2022-09-06T03:27:52.636Z,2.5
2022-09-06T03:32:52.645Z,2.8
2022-09-06T03:37:52.639Z,2.5
2022-09-06T03:42:52.638Z,2.6
2022-09-06T03:47:52.643Z,2.6
2022-09-06T03:52:52.644Z,1.9
2022-09-06T03:57:52.637Z,2.7
2022-09-06T04:02:52.652Z,2.7
2022-09-06T04:07:52.646Z,2.7
2022-09-06T04:12:52.650Z,2.8
2022-09-06T04:17:52.675Z,2.8
2022-09-06T04:22:52.641Z,2.2
2022-09-06T04:27:52.650Z,2.5
2022-09-06T04:32:52.645Z,2.4
2022-09-06T04:37:52.654Z,2.3
2022-09-06T04:42:52.663Z,2.5
2022-09-06T04:47:52.665Z,2.5
2022-09-06T04:52:52.642Z,2.5
2022-09-06T04:57:52.670Z,2.7
2022-09-06T05:02:52.654Z,2.7
2022-09-06T05:07:52.655Z,2.8
2022-09-06T05:12:52.662Z,2.4
2022-09-06T05:17:52.660Z,2.4
2022-09-06T05:22:52.654Z,2.7
2022-09-06T05:27:52.668Z,2.7
2022-09-06T05:32:52.651Z,2.8
2022-09-06T05:37:52.702Z,2.7
2022-09-06T05:42:52.664Z,3.2
2022-09-06T05:47:52.672Z,3.2
2022-09-06T05:52:52.661Z,2.9
2022-09-06T05:57:52.688Z,3.4
2022-09-06T06:02:52.669Z,3.8
2022-09-06T06:07:52.682Z,2.9
2022-09-06T06:12:52.672Z,3
2022-09-06T06:17:52.691Z,3
2022-09-06T06:22:52.665Z,2.8
2022-09-06T06:27:52.687Z,3.3
2022-09-06T06:32:52.665Z,3.9
2022-09-06T06:37:52.682Z,4.3
2022-09-06T06:42:52.684Z,4.3
2022-09-06T06:47:52.678Z,4.3
2022-09-06T06:52:52.669Z,4.4
2022-09-06T06:57:52.682Z,4.7
2022-09-06T07:02:52.673Z,5.2
2022-09-06T07:07:52.697Z,3.9
2022-09-06T07:12:52.692Z,4.3
2022-09-06T07:17:52.681Z,4.3
2022-09-06T07:22:52.692Z,3.7
2022-09-06T07:27:52.693Z,4.2
2022-09-06T07:32:52.691Z,2.9
2022-09-06T07:37:52.693Z,2.9
2022-09-06T07:42:52.696Z,3.2
2022-09-06T07:53:10.962Z,3.6
2022-09-06T07:57:52.696Z,3.3
2022-09-06T08:02:52.686Z,1.9
2022-09-06T08:12:52.695Z,3.5
2022-09-06T08:17:52.704Z,3.5
2022-09-06T08:22:52.699Z,3.2
2022-09-06T08:27:52.691Z,3.6
2022-09-06T08:32:52.714Z,3.9
2022-09-06T08:37:52.686Z,3.6
2022-09-06T08:42:52.707Z,3.8
2022-09-06T08:47:52.714Z,3.8
2022-09-06T08:53:06.552Z,3.8
2022-09-06T08:57:52.703Z,3.8
2022-09-06T09:02:52.705Z,3.8
2022-09-06T09:07:52.705Z,3.4
2022-09-06T09:12:52.707Z,2.9
2022-09-06T09:17:52.697Z,2.9
2022-09-06T09:22:52.710Z,2.3
2022-09-06T09:27:52.711Z,2.3
2022-09-06T09:32:52.708Z,2.5
2022-09-06T09:37:56.014Z,2.6
2022-09-06T09:42:52.700Z,1.9
2022-09-06T09:47:52.703Z,1.9
2022-09-06T09:52:52.711Z,2.9
2022-09-06T09:57:52.716Z,2.9
2022-09-06T10:02:52.700Z,2.5
2022-09-06T10:07:52.718Z,2.1
2022-09-06T10:12:52.694Z,1.8
2022-09-06T10:17:52.711Z,1.8
2022-09-06T10:22:52.716Z,1.9
2022-09-06T10:28:10.505Z,2.2
2022-09-06T10:32:52.704Z,2.5
2022-09-06T10:37:52.716Z,2.1
2022-09-06T10:42:52.698Z,1.9
2022-09-06T10:47:52.715Z,1.9
2022-09-06T10:52:52.704Z,2.4
2022-09-06T10:58:17.529Z,2.6
2022-09-06T11:12:52.708Z,3.2
2022-09-06T11:17:52.706Z,3.2
2022-09-06T11:22:52.714Z,3.2
2022-09-06T11:27:57.330Z,3.3
2022-09-06T11:32:52.726Z,2.7
2022-09-06T11:37:52.720Z,4
2022-09-06T11:42:52.705Z,3.5
2022-09-06T11:47:52.723Z,3.5
2022-09-06T11:52:52.705Z,5.1
2022-09-06T11:57:52.725Z,4.4
2022-09-06T12:02:53.221Z,4.7
2022-09-06T12:07:52.735Z,5
2022-09-06T12:12:52.759Z,5.2
2022-09-06T12:17:52.742Z,5.2
2022-09-06T12:22:52.748Z,4.2
2022-09-06T12:27:52.733Z,4.6
2022-09-06T12:32:52.744Z,5.3
2022-09-06T12:37:52.743Z,6.2
2022-09-06T12:42:52.785Z,7.7
2022-09-06T12:47:52.733Z,7.7
2022-09-06T12:52:52.747Z,9.8
2022-09-06T12:57:52.740Z,10.6
2022-09-06T13:02:52.803Z,10.6
2022-09-06T13:07:52.746Z,8.4
2022-09-06T13:12:52.743Z,7.2
2022-09-06T13:17:52.749Z,7.2
2022-09-06T13:22:52.735Z,6.3
2022-09-06T13:27:52.753Z,5
2022-09-06T13:32:52.746Z,3.2
2022-09-06T13:37:52.742Z,2.4
2022-09-06T13:42:52.758Z,2.4
2022-09-06T13:47:59.945Z,2.4
2022-09-06T13:52:52.747Z,2.5
2022-09-06T13:57:52.759Z,2.3
2022-09-06T14:02:52.780Z,1.9
2022-09-06T14:07:52.764Z,2.5
2022-09-06T14:12:52.757Z,2.5
2022-09-06T14:17:52.768Z,1.9
2022-09-06T14:22:52.763Z,1.7
2022-09-06T14:27:52.776Z,1.8
2022-09-06T14:32:52.773Z,1.7
2022-09-06T14:37:52.765Z,1.8
2022-09-06T14:42:52.782Z,1.8
2022-09-06T14:47:52.778Z,1.4
2022-09-06T14:52:52.782Z,1.3
2022-09-06T14:57:52.767Z,1.4
2022-09-06T15:02:52.846Z,1.3
2022-09-06T15:07:52.770Z,1.4
2022-09-06T15:12:52.782Z,1.4
2022-09-06T15:17:52.789Z,1.6
2022-09-06T15:23:03.886Z,1.4
2022-09-06T15:27:52.788Z,1.5
2022-09-06T15:32:52.790Z,1.9
2022-09-06T15:37:52.877Z,2
2022-09-06T15:42:52.796Z,2
2022-09-06T15:47:52.828Z,1.9
2022-09-06T15:52:52.782Z,2.2
2022-09-06T15:57:52.812Z,2.4
2022-09-06T16:02:52.830Z,2.6
2022-09-06T16:07:52.815Z,2.1
2022-09-06T16:12:52.806Z,2.1
2022-09-06T16:17:52.810Z,1.7
2022-09-06T16:22:52.798Z,2.1
2022-09-06T16:27:52.827Z,2.1
2022-09-06T16:32:52.803Z,1.8
2022-09-06T16:37:52.813Z,2.3
2022-09-06T16:42:52.810Z,2.3
2022-09-06T16:47:52.813Z,1.8
2022-09-06T16:52:52.806Z,1.9
2022-09-06T16:57:52.849Z,1.5
2022-09-06T17:02:52.867Z,1.1
2022-09-06T17:07:52.826Z,1
2022-09-06T17:12:52.830Z,1
2022-09-06T17:17:52.831Z,1
2022-09-06T17:22:52.863Z,0.7
2022-09-06T17:27:52.832Z,0.8
2022-09-06T17:32:52.819Z,0.8
2022-09-06T17:37:52.835Z,1
2022-09-06T17:42:52.850Z,1
2022-09-06T17:47:52.864Z,1.3
2022-09-06T17:52:52.933Z,1.8
2022-09-06T17:57:52.855Z,1.4
2022-09-06T18:02:52.861Z,1.4
2022-09-06T18:07:52.921Z,1.2
2022-09-06T18:12:52.887Z,1.2
2022-09-06T18:17:52.869Z,1.7
2022-09-06T18:22:52.861Z,1.3
2022-09-06T18:27:52.840Z,1.9
2022-09-06T18:32:52.953Z,1.4
2022-09-06T18:37:52.863Z,1.7
2022-09-06T18:42:52.932Z,1.7
2022-09-06T18:47:52.850Z,2
2022-09-06T18:52:52.877Z,1.8
2022-09-06T18:57:52.882Z,2.4
2022-09-06T19:02:52.844Z,1.8
2022-09-06T19:07:52.868Z,2.1
2022-09-06T19:12:53.508Z,2.1
2022-09-06T19:17:52.870Z,2
2022-09-06T19:22:52.889Z,2.2
2022-09-06T19:27:52.888Z,2.1
2022-09-06T19:32:52.862Z,1.3
2022-09-06T19:37:52.862Z,1.4
2022-09-06T19:42:52.866Z,1.4
2022-09-06T19:47:52.858Z,1.4
2022-09-06T19:52:52.864Z,1.5
2022-09-06T19:57:52.872Z,2
2022-09-06T20:02:52.864Z,1.6
2022-09-06T20:07:52.863Z,1.8
2022-09-06T20:12:52.915Z,1.8
2022-09-06T20:17:52.889Z,1.9
2022-09-06T20:22:52.868Z,1.3
2022-09-06T20:27:52.904Z,1.8
2022-09-06T20:32:52.866Z,1.6
2022-09-06T20:37:52.881Z,1.9
2022-09-06T20:42:52.881Z,1.9
2022-09-06T20:47:52.889Z,2.2
2022-09-06T20:52:52.884Z,1.9
2022-09-06T20:57:52.930Z,1.9
2022-09-06T21:02:52.870Z,1.7
2022-09-06T21:07:52.897Z,1.4
2022-09-06T21:12:52.894Z,1.4
2022-09-06T21:17:52.889Z,1.6
2022-09-06T21:22:52.900Z,2
2022-09-06T21:27:55.751Z,1.9
2022-09-06T21:32:52.905Z,1.3
2022-09-06T21:37:52.902Z,1.8
2022-09-06T21:42:52.911Z,1.8
2022-09-06T21:47:52.892Z,1.6
2022-09-06T21:52:52.905Z,1.6
2022-09-06T21:57:52.912Z,1.5
2022-09-06T22:02:52.901Z,1.5
2022-09-06T22:07:52.920Z,1.7
2022-09-06T22:12:52.899Z,1.7
2022-09-06T22:17:52.926Z,2.1
2022-09-06T22:22:52.913Z,2
2022-09-06T22:27:52.922Z,1.8
2022-09-06T22:32:52.905Z,1.9
2022-09-06T22:37:52.917Z,1.5
2022-09-06T22:42:52.916Z,1.5
2022-09-06T22:47:52.923Z,1.6
2022-09-06T22:52:52.916Z,2.4
2022-09-06T22:57:52.933Z,1.5
2022-09-06T23:02:52.920Z,2.2
2022-09-06T23:07:52.924Z,2.1
2022-09-06T23:12:52.931Z,2.1
2022-09-06T23:17:52.930Z,2.2
2022-09-06T23:22:52.927Z,2.4
2022-09-06T23:27:52.940Z,2
2022-09-06T23:32:52.922Z,2.2
2022-09-06T23:37:52.945Z,2.1
2022-09-06T23:42:52.926Z,2.1
2022-09-06T23:47:52.950Z,2.1
2022-09-06T23:52:52.945Z,2.2
2022-09-06T23:57:52.948Z,2.5
